Addison, Illinois
Current Conditions -  °F | °C
As of 5:51 AM on Friday 19 Dec 2014 (Local Time) from KORD Reporting Station
Overcast Overcast  
Wind Chill: 22°   Ceiling: 2600
Heat Index: 28°   Visibility: 10mi
Dew Point: 22°   Wind: 6mph
Humidity: 78%   Direction: 350°N
Pressure: 30.27"   Gusts: NA
Location:  41.93°N, 87.99°W
Report Text: KORD 191151Z 35005KT 10SM FEW013 OVC026 M02/M06 A3027 RMK AO2 SNE1055 SLP258 P0000 60000 T10221056 11022 21028 53001
Loading
Personal Weather Stations






























Interactive Weather Map New forecast layout! Learn more

10-Day Weather Forecast

Advertisements
Track Severe Weather on mobile